Westrac — WTH4325 — position and weather

sailwx.info

Track history (hours):
 
Tides and Currents Weather Stations Pressure Air Temp Water Temp Dewpoint Dewpoint Depression Visibility Wind Speed Wind Dir Waves Ship Positions

Westrac

Owner: WESTERN TOWBOAT CO, SEATTLE, WA. More information available from US FCC via Universal Licensing System and Coast Guard Vessel Documentation Center.

Last reported at 2015-Jan-30 22:33 UTC. Time now 2015-Jan-30 23:23 UTC.
Position N 47°34' W 122°21'.

Length 23 m; draft 5 m.

Type: Tug. MMSI: 366993010.

Date/timePositionNaut miles runAvg speedWind from/ knotsBaromVisibWave heightAir tempDewpointWater temp
2015-Jan-30 22:33N 47°34' W 122°21'0 0.0
2015-Jan-30 22:30N 47°34' W 122°21'1 0.8
2015-Jan-30 21:33N 47°33' W 122°21'0 0.1
2015-Jan-30 21:31N 47°33' W 122°21'0 0.2
2015-Jan-30 20:33N 47°34' W 122°21'0 4.6
2015-Jan-30 20:30N 47°33' W 122°21'1 0.5
2015-Jan-30 19:33N 47°33' W 122°20'0 1.1
2015-Jan-30 19:30N 47°33' W 122°20'3 2.8
2015-Jan-30 18:33N 47°35' W 122°21'0 2.6
2015-Jan-30 18:30N 47°35' W 122°21'3 2.9
2015-Jan-30 17:33N 47°33' W 122°20'0 6.3
2015-Jan-30 17:29N 47°32' W 122°20'2 2.1
2015-Jan-30 16:33N 47°34' W 122°21'0 0.0
2015-Jan-30 01:09N 47°34' W 122°21'1 6.3
2015-Jan-30 00:56N 47°33' W 122°20'0 1.3
2015-Jan-30 00:34N 47°33' W 122°21'0 1.0
2015-Jan-30 00:31N 47°33' W 122°21'2 2.3
2015-Jan-29 23:33N 47°35' W 122°21'0 3.7
2015-Jan-29 23:31N 47°36' W 122°21'0 0.4
2015-Jan-29 22:33N 47°36' W 122°22'0 1.0
2015-Jan-29 22:30N 47°35' W 122°22'2 2.4
2015-Jan-29 21:33N 47°33' W 122°21'0 7.6
2015-Jan-29 21:30N 47°34' W 122°21'1 0.6
2015-Jan-29 20:34N 47°33' W 122°20'1 1.4
2015-Jan-29 19:53N 47°34' W 122°21'0 0.0
2015-Jan-29 19:33N 47°34' W 122°21'0 0.0
2015-Jan-29 19:33N 47°34' W 122°21'0 0.0
2015-Jan-29 18:34N 47°34' W 122°21'0 0.0
2015-Jan-29 18:33N 47°34' W 122°21'1 1.2
2015-Jan-29 17:33N 47°35' W 122°22'0 5.2
2015-Jan-29 17:33N 47°35' W 122°22'1 1.0
2015-Jan-29 16:34N 47°34' W 122°21'0 6.9
2015-Jan-29 16:33N 47°34' W 122°21'0 0.0
2015-Jan-29 02:44N 47°34' W 122°21'1 5.8
2015-Jan-29 02:34N 47°33' W 122°20'0 0.1
2015-Jan-29 02:29N 47°33' W 122°20'0 0.2
2015-Jan-29 01:33N 47°33' W 122°21'0 4.9
2015-Jan-29 01:29N 47°34' W 122°21'0 0.5
2015-Jan-29 00:33N 47°34' W 122°21'0 0.0
2015-Jan-29 00:29N 47°34' W 122°21'1 1.4
2015-Jan-28 23:33N 47°35' W 122°22'0 3.5
2015-Jan-28 23:29N 47°35' W 122°22'2 2.1
2015-Jan-28 22:33N 47°34' W 122°21'0 5.1
2015-Jan-28 22:29N 47°34' W 122°21'0 0.2
2015-Jan-28 21:33N 47°34' W 122°21'0 0.1
2015-Jan-28 21:29N 47°34' W 122°21'0 0.0
2015-Jan-28 20:34N 47°34' W 122°21'0 0.0
2015-Jan-28 20:33N 47°34' W 122°21'0 0.0
2015-Jan-28 19:33N 47°34' W 122°21'0 0.0
2015-Jan-28 19:29N 47°34' W 122°21'0 0.0
2015-Jan-28 18:33N 47°34' W 122°21'0 0.0
2015-Jan-28 17:34N 47°34' W 122°21'0 0.0
2015-Jan-28 17:31N 47°34' W 122°21'2 1.6
2015-Jan-28 16:33N 47°36' W 122°22'0 0.3
2015-Jan-28 16:31N 47°36' W 122°22'2 2.1
2015-Jan-28 15:33N 47°34' W 122°21'1 5.2
2015-Jan-28 15:25N 47°33' W 122°20'1 0.1
2015-Jan-28 00:16N 47°34' W 122°21'0 4.0
2015-Jan-28 00:13N 47°34' W 122°21'1 0.9
2015-Jan-27 23:33N 47°34' W 122°21'0 3.7
2015-Jan-27 23:32N 47°34' W 122°21'1 0.6
2015-Jan-27 22:33N 47°34' W 122°21'0 4.5
2015-Jan-27 22:32N 47°34' W 122°21'0 0.0
2015-Jan-27 21:33N 47°34' W 122°21'0 0.0
2015-Jan-27 21:32N 47°34' W 122°21'0 0.2
2015-Jan-27 20:33N 47°34' W 122°21'0 6.1
2015-Jan-27 20:32N 47°34' W 122°21'1 1.4
2015-Jan-27 19:33N 47°33' W 122°20'0 0.5
2015-Jan-27 19:31N 47°33' W 122°20'1 0.8
2015-Jan-27 18:31N 47°33' W 122°21'0 0.1
2015-Jan-27 18:27N 47°33' W 122°21'3 3.2
2015-Jan-27 17:33N 47°36' W 122°23'0 1.7
2015-Jan-27 17:32N 47°36' W 122°23'2 2.3
2015-Jan-27 16:33N 47°34' W 122°21'0 0.0
2015-Jan-27 16:12N 47°34' W 122°21'0 0.0
2015-Jan-27 15:33N 47°34' W 122°21'0 0.0
2015-Jan-27 15:26N 47°34' W 122°21'0 0.0
2015-Jan-27 14:33N 47°34' W 122°21'0 0.0
2015-Jan-27 14:31N 47°34' W 122°21'0 0.0
2015-Jan-27 13:33N 47°34' W 122°21'0 0.2
2015-Jan-27 13:31N 47°34' W 122°21'0 0.0
2015-Jan-27 12:33N 47°34' W 122°21'0 0.0
2015-Jan-27 12:31N 47°34' W 122°21'0 0.0
2015-Jan-27 11:33N 47°34' W 122°21'0 0.0
2015-Jan-27 11:30N 47°34' W 122°21'0 0.0
2015-Jan-27 10:33N 47°34' W 122°21'0 0.0
2015-Jan-27 10:30N 47°34' W 122°21'0 0.0
2015-Jan-27 09:33N 47°34' W 122°21'0 0.0
2015-Jan-27 09:30N 47°34' W 122°21'0 0.0
2015-Jan-27 08:33N 47°34' W 122°21'0 0.0
2015-Jan-27 07:33N 47°34' W 122°21'0 0.0
2015-Jan-27 06:33N 47°34' W 122°21'0 0.0
2015-Jan-27 06:15N 47°34' W 122°21'0 0.0
2015-Jan-27 05:33N 47°34' W 122°21'0 0.2
2015-Jan-27 05:31N 47°34' W 122°21'1 1.0
2015-Jan-27 04:33N 47°35' W 122°22'0 0.2
2015-Jan-27 04:31N 47°35' W 122°22'0 0.5
2015-Jan-27 03:33N 47°35' W 122°22'0 0.9
2015-Jan-27 03:31N 47°35' W 122°22'1 0.3
2015-Jan-26 22:35N 47°34' W 122°21'0 3.2
2015-Jan-26 22:34N 47°34' W 122°21'1 6.0
2015-Jan-26 22:25N 47°35' W 122°22'2 1.8
2015-Jan-26 21:34N 47°33' W 122°21'0 0.0
2015-Jan-26 21:30N 47°33' W 122°21'1 0.8
2015-Jan-26 20:33N 47°34' W 122°21'0 1.5
2015-Jan-26 20:30N 47°34' W 122°21'0 0.5
2015-Jan-26 19:34N 47°34' W 122°21'0 5.1
2015-Jan-26 19:29N 47°35' W 122°22'2 1.7
2015-Jan-26 18:33N 47°33' W 122°21'0 0.6
2015-Jan-26 18:29N 47°33' W 122°21'1 0.6
2015-Jan-26 17:33N 47°33' W 122°20'0 0.1
2015-Jan-26 17:29N 47°33' W 122°20'3 3.3
2015-Jan-26 16:33N 47°36' W 122°22'110.7
2015-Jan-26 16:29N 47°35' W 122°22'1 1.0
2015-Jan-26 15:34N 47°34' W 122°21'0 0.0
2015-Jan-26 15:29N 47°34' W 122°21'0 0.0
2015-Jan-26 14:34N 47°34' W 122°21'0 0.0
2015-Jan-26 14:29N 47°34' W 122°21'0 0.0
2015-Jan-26 13:33N 47°34' W 122°21'0 0.1
2015-Jan-26 13:29N 47°34' W 122°21'0 0.0
2015-Jan-26 12:33N 47°34' W 122°21'0 0.0
2015-Jan-26 12:29N 47°34' W 122°21'0 0.0
2015-Jan-26 11:33N 47°34' W 122°21'0 0.0
2015-Jan-26 11:29N 47°34' W 122°21'0 0.0
2015-Jan-26 10:34N 47°34' W 122°21'0 0.0
2015-Jan-26 10:33N 47°34' W 122°21'0 0.0
2015-Jan-26 09:33N 47°34' W 122°21'0 0.0
2015-Jan-26 09:33N 47°34' W 122°21'0 0.0
2015-Jan-26 08:33N 47°34' W 122°21'0 0.0
2015-Jan-26 08:33N 47°34' W 122°21'0 0.0
2015-Jan-26 07:34N 47°34' W 122°21'0 0.0
2015-Jan-26 07:33N 47°34' W 122°21'0 0.0
2015-Jan-26 07:03N 47°34' W 122°21'0 0.0
2015-Jan-26 06:34N 47°34' W 122°21'0 0.0
2015-Jan-26 05:34N 47°34' W 122°21'0 0.0
2015-Jan-26 05:33N 47°34' W 122°21'0 0.0
2015-Jan-26 04:33N 47°34' W 122°21'0 0.0
2015-Jan-26 04:33N 47°34' W 122°21'2 1.6
2015-Jan-26 03:33N 47°36' W 122°22'0 0.9
2015-Jan-26 03:33N 47°36' W 122°22'2 1.6
2015-Jan-26 02:34N 47°34' W 122°21'0 0.0
2015-Jan-26 02:33N 47°34' W 122°21'0 0.0
2015-Jan-26 01:34N 47°34' W 122°21'0 0.0
2015-Jan-26 01:01N 47°34' W 122°21'0 0.0
2015-Jan-26 00:34N 47°34' W 122°21'0 0.0
2015-Jan-26 00:31N 47°34' W 122°21'0 0.0
2015-Jan-25 23:34N 47°34' W 122°21'0 0.1
2015-Jan-25 23:31N 47°34' W 122°21'0 0.0
2015-Jan-25 22:33N 47°34' W 122°21'0 0.2
2015-Jan-25 22:31N 47°34' W 122°21'1 1.1
2015-Jan-25 21:33N 47°33' W 122°20'0 0.0
2015-Jan-25 21:31N 47°33' W 122°20'3 3.0
2015-Jan-25 20:34N 47°36' W 122°22'0 7.7
2015-Jan-25 20:30N 47°35' W 122°22'1 1.4
2015-Jan-25 19:34N 47°34' W 122°21'0 0.0
2015-Jan-25 19:30N 47°34' W 122°21'0 0.0
2015-Jan-25 18:33N 47°34' W 122°21'0 0.0
2015-Jan-25 18:29N 47°34' W 122°21'2 1.8
2015-Jan-25 17:33N 47°35' W 122°22'0 6.5
2015-Jan-25 17:29N 47°36' W 122°22'1 1.5
2015-Jan-25 16:33N 47°35' W 122°22'1 7.4
2015-Jan-25 16:29N 47°34' W 122°21'0 0.0
2015-Jan-24 23:07N 47°34' W 122°21'0 0.3
2015-Jan-24 23:06N 47°34' W 122°21'1 1.0
2015-Jan-24 22:34N 47°34' W 122°21'0 4.4
2015-Jan-24 22:31N 47°35' W 122°22'2 2.2
2015-Jan-24 21:34N 47°33' W 122°20'0 0.4
2015-Jan-24 21:30N 47°33' W 122°20'3 2.8
2015-Jan-24 20:32N 47°35' W 122°21'3 2.6
2015-Jan-24 19:33N 47°38' W 122°23'0 0.9
2015-Jan-24 19:05N 47°37' W 122°23'2 4.4
2015-Jan-24 18:33N 47°35' W 122°22'3 2.7
2015-Jan-24 17:33N 47°37' W 122°23'0 8.5
2015-Jan-24 17:32N 47°37' W 122°24'1 0.8
2015-Jan-24 16:34N 47°38' W 122°23'0 0.0
2015-Jan-24 16:32N 47°38' W 122°23'4 0.3
2015-Jan-24 04:39N 47°34' W 122°21'1 7.7
2015-Jan-24 04:33N 47°35' W 122°22'1 9.6
2015-Jan-24 04:29N 47°35' W 122°22'0 0.1
2015-Jan-24 03:33N 47°35' W 122°22'0 1.2
2015-Jan-24 03:29N 47°36' W 122°22'2 1.7
2015-Jan-24 02:33N 47°34' W 122°21'0 0.1
2015-Jan-24 02:29N 47°34' W 122°21'0 0.0
2015-Jan-24 01:33N 47°34' W 122°21'0 0.1
2015-Jan-24 01:29N 47°34' W 122°21'0 0.1
2015-Jan-24 00:33N 47°34' W 122°21'0 9.3
2015-Jan-24 00:33N 47°34' W 122°21'0 0.5
2015-Jan-23 23:33N 47°34' W 122°21'0 5.8
2015-Jan-23 23:33N 47°34' W 122°21'1 0.6
2015-Jan-23 22:33N 47°34' W 122°21'0 0.0
2015-Jan-23 22:33N 47°34' W 122°21'0 0.0
2015-Jan-23 21:33N 47°34' W 122°21'0 0.0
2015-Jan-23 21:32N 47°34' W 122°21'0 0.0
2015-Jan-23 20:33N 47°34' W 122°21'1 0.9
2015-Jan-23 19:33N 47°35' W 122°22'1 0.9
2015-Jan-23 18:33N 47°34' W 122°21'0 0.0
2015-Jan-22 21:33N 47°34' W 122°21'1 2.1
2015-Jan-22 21:13N 47°33' W 122°21'1 1.8
2015-Jan-22 20:33N 47°34' W 122°21'0 0.3
2015-Jan-22 20:32N 47°34' W 122°21'1 1.1
2015-Jan-22 19:33N 47°33' W 122°21'0 0.0
2015-Jan-22 19:11N 47°33' W 122°21'1 1.4
2015-Jan-22 18:33N 47°34' W 122°21'0 0.7
2015-Jan-22 18:31N 47°34' W 122°21'0 0.0
2015-Jan-22 17:33N 47°34' W 122°21'0 0.2
2015-Jan-22 17:31N 47°34' W 122°21'0 0.1
2015-Jan-22 16:33N 47°34' W 122°21'0 6.3
2015-Jan-22 16:31N 47°34' W 122°21'0 0.2
2015-Jan-22 15:33N 47°34' W 122°21'0 7.5
2015-Jan-22 15:31N 47°34' W 122°21'0 0.0
2015-Jan-22 02:24N 47°34' W 122°21'0 0.0
2015-Jan-22 02:22N 47°34' W 122°21'1 1.6
2015-Jan-22 01:33N 47°33' W 122°20'0 2.6
2015-Jan-22 01:31N 47°33' W 122°20'0 0.1
2015-Jan-22 00:33N 47°33' W 122°20'0 0.1
2015-Jan-22 00:31N 47°33' W 122°20'1 1.5
2015-Jan-21 23:33N 47°34' W 122°21'0 7.3
2015-Jan-21 23:31N 47°35' W 122°22'1 1.1
2015-Jan-21 22:50N 47°34' W 122°21'0 0.0
2015-Jan-21 22:46N 47°34' W 122°21'0 0.0
2015-Jan-21 22:46N 47°34' W 122°21'0 0.2
2015-Jan-21 22:32N 47°34' W 122°21'0 0.7
2015-Jan-21 22:21N 47°34' W 122°21'0 0.0
2015-Jan-21 21:33N 47°34' W 122°21'0 0.0
2015-Jan-21 21:30N 47°34' W 122°21'0 0.0
2015-Jan-21 20:33N 47°34' W 122°21'0 0.0
2015-Jan-21 20:30N 47°34' W 122°21'0 0.0
2015-Jan-21 19:33N 47°34' W 122°21'0 0.0
2015-Jan-21 19:30N 47°34' W 122°21'0 0.0
2015-Jan-21 18:33N 47°34' W 122°21'0 0.0
2015-Jan-21 18:30N 47°34' W 122°21'0 0.0
2015-Jan-21 17:33N 47°34' W 122°21'0 0.1
2015-Jan-21 17:30N 47°34' W 122°21'0 0.0
2015-Jan-21 16:33N 47°34' W 122°21'0 0.0
2015-Jan-21 16:30N 47°34' W 122°21'0 0.0
2015-Jan-21 15:33N 47°34' W 122°21'0 0.0
2015-Jan-21 15:30N 47°34' W 122°21'0 0.0
2015-Jan-21 14:33N 47°34' W 122°21'0 0.0
2015-Jan-21 14:30N 47°34' W 122°21'0 0.0
2015-Jan-21 13:33N 47°34' W 122°21'0 0.2
2015-Jan-21 13:29N 47°34' W 122°21'0 0.0
2015-Jan-21 12:33N 47°34' W 122°21'0 0.0
2015-Jan-21 12:29N 47°34' W 122°21'0 0.0
2015-Jan-21 11:33N 47°34' W 122°21'0 0.0
2015-Jan-21 11:33N 47°34' W 122°21'0 0.0
2015-Jan-21 10:33N 47°34' W 122°21'0 0.0
2015-Jan-21 10:28N 47°34' W 122°21'0 0.0
2015-Jan-21 09:33N 47°34' W 122°21'0 0.0
2015-Jan-21 09:33N 47°34' W 122°21'0 0.0
2015-Jan-21 08:33N 47°34' W 122°21'0 0.0
2015-Jan-21 08:32N 47°34' W 122°21'0 0.0
2015-Jan-21 07:33N 47°34' W 122°21'0 0.0
2015-Jan-21 07:32N 47°34' W 122°21'0 0.0
2015-Jan-21 07:02N 47°34' W 122°21'0 0.0
2015-Jan-21 06:33N 47°34' W 122°21'0 0.0
2015-Jan-21 05:33N 47°34' W 122°21'0 0.0
2015-Jan-21 05:32N 47°34' W 122°21'0 0.0
2015-Jan-21 04:33N 47°34' W 122°21'1 1.8
2015-Jan-21 03:44N 47°36' W 122°22'0 0.0
2015-Jan-21 03:33N 47°36' W 122°22'0 0.2
2015-Jan-21 03:18N 47°36' W 122°22'0 0.5
2015-Jan-21 02:33N 47°35' W 122°22'0 4.9
2015-Jan-21 02:28N 47°35' W 122°22'2 1.9
2015-Jan-21 01:33N 47°33' W 122°20'0 0.3
2015-Jan-21 01:32N 47°33' W 122°20'3 2.8
2015-Jan-21 00:33N 47°36' W 122°22'0 1.5
2015-Jan-21 00:32N 47°36' W 122°22'0 0.3
2015-Jan-20 23:33N 47°35' W 122°22'0 0.0
2015-Jan-20 23:32N 47°35' W 122°22'1 1.1
2015-Jan-20 22:33N 47°34' W 122°21'  
Track history (hours):
 
Tides and Currents Weather Stations Pressure Air Temp Water Temp Dewpoint Dewpoint Depression Visibility Wind Speed Wind Dir Waves Ship Positions

Westrac

Owner: WESTERN TOWBOAT CO, SEATTLE, WA. More information available from US FCC via Universal Licensing System and Coast Guard Vessel Documentation Center.

Last reported at 2015-Jan-30 22:33 UTC. Time now 2015-Jan-30 23:23 UTC.
Position N 47°34' W 122°21'.

Length 23 m; draft 5 m.

Type: Tug. MMSI: 366993010.

Date/timePositionNaut miles runAvg speedWind from/ knotsBaromVisibWave heightAir tempDewpointWater temp
2015-Jan-30 22:33N 47°34' W 122°21'0 0.0
2015-Jan-30 22:30N 47°34' W 122°21'1 0.8
2015-Jan-30 21:33N 47°33' W 122°21'0 0.1
2015-Jan-30 21:31N 47°33' W 122°21'0 0.2
2015-Jan-30 20:33N 47°34' W 122°21'0 4.6
2015-Jan-30 20:30N 47°33' W 122°21'1 0.5
2015-Jan-30 19:33N 47°33' W 122°20'0 1.1
2015-Jan-30 19:30N 47°33' W 122°20'3 2.8
2015-Jan-30 18:33N 47°35' W 122°21'0 2.6
2015-Jan-30 18:30N 47°35' W 122°21'3 2.9
2015-Jan-30 17:33N 47°33' W 122°20'0 6.3
2015-Jan-30 17:29N 47°32' W 122°20'2 2.1
2015-Jan-30 16:33N 47°34' W 122°21'0 0.0
2015-Jan-30 01:09N 47°34' W 122°21'1 6.3
2015-Jan-30 00:56N 47°33' W 122°20'0 1.3
2015-Jan-30 00:34N 47°33' W 122°21'0 1.0
2015-Jan-30 00:31N 47°33' W 122°21'2 2.3
2015-Jan-29 23:33N 47°35' W 122°21'0 3.7
2015-Jan-29 23:31N 47°36' W 122°21'0 0.4
2015-Jan-29 22:33N 47°36' W 122°22'0 1.0
2015-Jan-29 22:30N 47°35' W 122°22'2 2.4
2015-Jan-29 21:33N 47°33' W 122°21'0 7.6
2015-Jan-29 21:30N 47°34' W 122°21'1 0.6
2015-Jan-29 20:34N 47°33' W 122°20'1 1.4
2015-Jan-29 19:53N 47°34' W 122°21'0 0.0
2015-Jan-29 19:33N 47°34' W 122°21'0 0.0
2015-Jan-29 19:33N 47°34' W 122°21'0 0.0
2015-Jan-29 18:34N 47°34' W 122°21'0 0.0
2015-Jan-29 18:33N 47°34' W 122°21'1 1.2
2015-Jan-29 17:33N 47°35' W 122°22'0 5.2
2015-Jan-29 17:33N 47°35' W 122°22'1 1.0
2015-Jan-29 16:34N 47°34' W 122°21'0 6.9
2015-Jan-29 16:33N 47°34' W 122°21'0 0.0
2015-Jan-29 02:44N 47°34' W 122°21'1 5.8
2015-Jan-29 02:34N 47°33' W 122°20'0 0.1
2015-Jan-29 02:29N 47°33' W 122°20'0 0.2
2015-Jan-29 01:33N 47°33' W 122°21'0 4.9
2015-Jan-29 01:29N 47°34' W 122°21'0 0.5
2015-Jan-29 00:33N 47°34' W 122°21'0 0.0
2015-Jan-29 00:29N 47°34' W 122°21'1 1.4
2015-Jan-28 23:33N 47°35' W 122°22'0 3.5
2015-Jan-28 23:29N 47°35' W 122°22'2 2.1
2015-Jan-28 22:33N 47°34' W 122°21'0 5.1
2015-Jan-28 22:29N 47°34' W 122°21'0 0.2
2015-Jan-28 21:33N 47°34' W 122°21'0 0.1
2015-Jan-28 21:29N 47°34' W 122°21'0 0.0
2015-Jan-28 20:34N 47°34' W 122°21'0 0.0
2015-Jan-28 20:33N 47°34' W 122°21'0 0.0
2015-Jan-28 19:33N 47°34' W 122°21'0 0.0
2015-Jan-28 19:29N 47°34' W 122°21'0 0.0
2015-Jan-28 18:33N 47°34' W 122°21'0 0.0
2015-Jan-28 17:34N 47°34' W 122°21'0 0.0
2015-Jan-28 17:31N 47°34' W 122°21'2 1.6
2015-Jan-28 16:33N 47°36' W 122°22'0 0.3
2015-Jan-28 16:31N 47°36' W 122°22'2 2.1
2015-Jan-28 15:33N 47°34' W 122°21'1 5.2
2015-Jan-28 15:25N 47°33' W 122°20'1 0.1
2015-Jan-28 00:16N 47°34' W 122°21'0 4.0
2015-Jan-28 00:13N 47°34' W 122°21'1 0.9
2015-Jan-27 23:33N 47°34' W 122°21'0 3.7
2015-Jan-27 23:32N 47°34' W 122°21'1 0.6
2015-Jan-27 22:33N 47°34' W 122°21'0 4.5
2015-Jan-27 22:32N 47°34' W 122°21'0 0.0
2015-Jan-27 21:33N 47°34' W 122°21'0 0.0
2015-Jan-27 21:32N 47°34' W 122°21'0 0.2
2015-Jan-27 20:33N 47°34' W 122°21'0 6.1
2015-Jan-27 20:32N 47°34' W 122°21'1 1.4
2015-Jan-27 19:33N 47°33' W 122°20'0 0.5
2015-Jan-27 19:31N 47°33' W 122°20'1 0.8
2015-Jan-27 18:31N 47°33' W 122°21'0 0.1
2015-Jan-27 18:27N 47°33' W 122°21'3 3.2
2015-Jan-27 17:33N 47°36' W 122°23'0 1.7
2015-Jan-27 17:32N 47°36' W 122°23'2 2.3
2015-Jan-27 16:33N 47°34' W 122°21'0 0.0
2015-Jan-27 16:12N 47°34' W 122°21'0 0.0
2015-Jan-27 15:33N 47°34' W 122°21'0 0.0
2015-Jan-27 15:26N 47°34' W 122°21'0 0.0
2015-Jan-27 14:33N 47°34' W 122°21'0 0.0
2015-Jan-27 14:31N 47°34' W 122°21'0 0.0
2015-Jan-27 13:33N 47°34' W 122°21'0 0.2
2015-Jan-27 13:31N 47°34' W 122°21'0 0.0
2015-Jan-27 12:33N 47°34' W 122°21'0 0.0
2015-Jan-27 12:31N 47°34' W 122°21'0 0.0
2015-Jan-27 11:33N 47°34' W 122°21'0 0.0
2015-Jan-27 11:30N 47°34' W 122°21'0 0.0
2015-Jan-27 10:33N 47°34' W 122°21'0 0.0
2015-Jan-27 10:30N 47°34' W 122°21'0 0.0
2015-Jan-27 09:33N 47°34' W 122°21'0 0.0
2015-Jan-27 09:30N 47°34' W 122°21'0 0.0
2015-Jan-27 08:33N 47°34' W 122°21'0 0.0
2015-Jan-27 07:33N 47°34' W 122°21'0 0.0
2015-Jan-27 06:33N 47°34' W 122°21'0 0.0
2015-Jan-27 06:15N 47°34' W 122°21'0 0.0
2015-Jan-27 05:33N 47°34' W 122°21'0 0.2
2015-Jan-27 05:31N 47°34' W 122°21'1 1.0
2015-Jan-27 04:33N 47°35' W 122°22'0 0.2
2015-Jan-27 04:31N 47°35' W 122°22'0 0.5
2015-Jan-27 03:33N 47°35' W 122°22'0 0.9
2015-Jan-27 03:31N 47°35' W 122°22'1 0.3
2015-Jan-26 22:35N 47°34' W 122°21'0 3.2
2015-Jan-26 22:34N 47°34' W 122°21'1 6.0
2015-Jan-26 22:25N 47°35' W 122°22'2 1.8
2015-Jan-26 21:34N 47°33' W 122°21'0 0.0
2015-Jan-26 21:30N 47°33' W 122°21'1 0.8
2015-Jan-26 20:33N 47°34' W 122°21'0 1.5
2015-Jan-26 20:30N 47°34' W 122°21'0 0.5
2015-Jan-26 19:34N 47°34' W 122°21'0 5.1
2015-Jan-26 19:29N 47°35' W 122°22'2 1.7
2015-Jan-26 18:33N 47°33' W 122°21'0 0.6
2015-Jan-26 18:29N 47°33' W 122°21'1 0.6
2015-Jan-26 17:33N 47°33' W 122°20'0 0.1
2015-Jan-26 17:29N 47°33' W 122°20'3 3.3
2015-Jan-26 16:33N 47°36' W 122°22'110.7
2015-Jan-26 16:29N 47°35' W 122°22'1 1.0
2015-Jan-26 15:34N 47°34' W 122°21'0 0.0
2015-Jan-26 15:29N 47°34' W 122°21'0 0.0
2015-Jan-26 14:34N 47°34' W 122°21'0 0.0
2015-Jan-26 14:29N 47°34' W 122°21'0 0.0
2015-Jan-26 13:33N 47°34' W 122°21'0 0.1
2015-Jan-26 13:29N 47°34' W 122°21'0 0.0
2015-Jan-26 12:33N 47°34' W 122°21'0 0.0
2015-Jan-26 12:29N 47°34' W 122°21'0 0.0
2015-Jan-26 11:33N 47°34' W 122°21'0 0.0
2015-Jan-26 11:29N 47°34' W 122°21'0 0.0
2015-Jan-26 10:34N 47°34' W 122°21'0 0.0
2015-Jan-26 10:33N 47°34' W 122°21'0 0.0
2015-Jan-26 09:33N 47°34' W 122°21'0 0.0
2015-Jan-26 09:33N 47°34' W 122°21'0 0.0
2015-Jan-26 08:33N 47°34' W 122°21'0 0.0
2015-Jan-26 08:33N 47°34' W 122°21'0 0.0
2015-Jan-26 07:34N 47°34' W 122°21'0 0.0
2015-Jan-26 07:33N 47°34' W 122°21'0 0.0
2015-Jan-26 07:03N 47°34' W 122°21'0 0.0
2015-Jan-26 06:34N 47°34' W 122°21'0 0.0
2015-Jan-26 05:34N 47°34' W 122°21'0 0.0
2015-Jan-26 05:33N 47°34' W 122°21'0 0.0
2015-Jan-26 04:33N 47°34' W 122°21'0 0.0
2015-Jan-26 04:33N 47°34' W 122°21'2 1.6
2015-Jan-26 03:33N 47°36' W 122°22'0 0.9
2015-Jan-26 03:33N 47°36' W 122°22'2 1.6
2015-Jan-26 02:34N 47°34' W 122°21'0 0.0
2015-Jan-26 02:33N 47°34' W 122°21'0 0.0
2015-Jan-26 01:34N 47°34' W 122°21'0 0.0
2015-Jan-26 01:01N 47°34' W 122°21'0 0.0
2015-Jan-26 00:34N 47°34' W 122°21'0 0.0
2015-Jan-26 00:31N 47°34' W 122°21'0 0.0
2015-Jan-25 23:34N 47°34' W 122°21'0 0.1
2015-Jan-25 23:31N 47°34' W 122°21'0 0.0
2015-Jan-25 22:33N 47°34' W 122°21'0 0.2
2015-Jan-25 22:31N 47°34' W 122°21'1 1.1
2015-Jan-25 21:33N 47°33' W 122°20'0 0.0
2015-Jan-25 21:31N 47°33' W 122°20'3 3.0
2015-Jan-25 20:34N 47°36' W 122°22'0 7.7
2015-Jan-25 20:30N 47°35' W 122°22'1 1.4
2015-Jan-25 19:34N 47°34' W 122°21'0 0.0
2015-Jan-25 19:30N 47°34' W 122°21'0 0.0
2015-Jan-25 18:33N 47°34' W 122°21'0 0.0
2015-Jan-25 18:29N 47°34' W 122°21'2 1.8
2015-Jan-25 17:33N 47°35' W 122°22'0 6.5
2015-Jan-25 17:29N 47°36' W 122°22'1 1.5
2015-Jan-25 16:33N 47°35' W 122°22'1 7.4
2015-Jan-25 16:29N 47°34' W 122°21'0 0.0
2015-Jan-24 23:07N 47°34' W 122°21'0 0.3
2015-Jan-24 23:06N 47°34' W 122°21'1 1.0
2015-Jan-24 22:34N 47°34' W 122°21'0 4.4
2015-Jan-24 22:31N 47°35' W 122°22'2 2.2
2015-Jan-24 21:34N 47°33' W 122°20'0 0.4
2015-Jan-24 21:30N 47°33' W 122°20'3 2.8
2015-Jan-24 20:32N 47°35' W 122°21'3 2.6
2015-Jan-24 19:33N 47°38' W 122°23'0 0.9
2015-Jan-24 19:05N 47°37' W 122°23'2 4.4
2015-Jan-24 18:33N 47°35' W 122°22'3 2.7
2015-Jan-24 17:33N 47°37' W 122°23'0 8.5
2015-Jan-24 17:32N 47°37' W 122°24'1 0.8
2015-Jan-24 16:34N 47°38' W 122°23'0 0.0
2015-Jan-24 16:32N 47°38' W 122°23'4 0.3
2015-Jan-24 04:39N 47°34' W 122°21'1 7.7
2015-Jan-24 04:33N 47°35' W 122°22'1 9.6
2015-Jan-24 04:29N 47°35' W 122°22'0 0.1
2015-Jan-24 03:33N 47°35' W 122°22'0 1.2
2015-Jan-24 03:29N 47°36' W 122°22'2 1.7
2015-Jan-24 02:33N 47°34' W 122°21'0 0.1
2015-Jan-24 02:29N 47°34' W 122°21'0 0.0
2015-Jan-24 01:33N 47°34' W 122°21'0 0.1
2015-Jan-24 01:29N 47°34' W 122°21'0 0.1
2015-Jan-24 00:33N 47°34' W 122°21'0 9.3
2015-Jan-24 00:33N 47°34' W 122°21'0 0.5
2015-Jan-23 23:33N 47°34' W 122°21'0 5.8
2015-Jan-23 23:33N 47°34' W 122°21'1 0.6
2015-Jan-23 22:33N 47°34' W 122°21'0 0.0
2015-Jan-23 22:33N 47°34' W 122°21'0 0.0
2015-Jan-23 21:33N 47°34' W 122°21'0 0.0
2015-Jan-23 21:32N 47°34' W 122°21'0 0.0
2015-Jan-23 20:33N 47°34' W 122°21'1 0.9
2015-Jan-23 19:33N 47°35' W 122°22'1 0.9
2015-Jan-23 18:33N 47°34' W 122°21'0 0.0
2015-Jan-22 21:33N 47°34' W 122°21'1 2.1
2015-Jan-22 21:13N 47°33' W 122°21'1 1.8
2015-Jan-22 20:33N 47°34' W 122°21'0 0.3
2015-Jan-22 20:32N 47°34' W 122°21'1 1.1
2015-Jan-22 19:33N 47°33' W 122°21'0 0.0
2015-Jan-22 19:11N 47°33' W 122°21'1 1.4
2015-Jan-22 18:33N 47°34' W 122°21'0 0.7
2015-Jan-22 18:31N 47°34' W 122°21'0 0.0
2015-Jan-22 17:33N 47°34' W 122°21'0 0.2
2015-Jan-22 17:31N 47°34' W 122°21'0 0.1
2015-Jan-22 16:33N 47°34' W 122°21'0 6.3
2015-Jan-22 16:31N 47°34' W 122°21'0 0.2
2015-Jan-22 15:33N 47°34' W 122°21'0 7.5
2015-Jan-22 15:31N 47°34' W 122°21'0 0.0
2015-Jan-22 02:24N 47°34' W 122°21'0 0.0
2015-Jan-22 02:22N 47°34' W 122°21'1 1.6
2015-Jan-22 01:33N 47°33' W 122°20'0 2.6
2015-Jan-22 01:31N 47°33' W 122°20'0 0.1
2015-Jan-22 00:33N 47°33' W 122°20'0 0.1
2015-Jan-22 00:31N 47°33' W 122°20'1 1.5
2015-Jan-21 23:33N 47°34' W 122°21'0 7.3
2015-Jan-21 23:31N 47°35' W 122°22'1 1.1
2015-Jan-21 22:50N 47°34' W 122°21'0 0.0
2015-Jan-21 22:46N 47°34' W 122°21'0 0.0
2015-Jan-21 22:46N 47°34' W 122°21'0 0.2
2015-Jan-21 22:32N 47°34' W 122°21'0 0.7
2015-Jan-21 22:21N 47°34' W 122°21'0 0.0
2015-Jan-21 21:33N 47°34' W 122°21'0 0.0
2015-Jan-21 21:30N 47°34' W 122°21'0 0.0
2015-Jan-21 20:33N 47°34' W 122°21'0 0.0
2015-Jan-21 20:30N 47°34' W 122°21'0 0.0
2015-Jan-21 19:33N 47°34' W 122°21'0 0.0
2015-Jan-21 19:30N 47°34' W 122°21'0 0.0
2015-Jan-21 18:33N 47°34' W 122°21'0 0.0
2015-Jan-21 18:30N 47°34' W 122°21'0 0.0
2015-Jan-21 17:33N 47°34' W 122°21'0 0.1
2015-Jan-21 17:30N 47°34' W 122°21'0 0.0
2015-Jan-21 16:33N 47°34' W 122°21'0 0.0
2015-Jan-21 16:30N 47°34' W 122°21'0 0.0
2015-Jan-21 15:33N 47°34' W 122°21'0 0.0
2015-Jan-21 15:30N 47°34' W 122°21'0 0.0
2015-Jan-21 14:33N 47°34' W 122°21'0 0.0
2015-Jan-21 14:30N 47°34' W 122°21'0 0.0
2015-Jan-21 13:33N 47°34' W 122°21'0 0.2
2015-Jan-21 13:29N 47°34' W 122°21'0 0.0
2015-Jan-21 12:33N 47°34' W 122°21'0 0.0
2015-Jan-21 12:29N 47°34' W 122°21'0 0.0
2015-Jan-21 11:33N 47°34' W 122°21'0 0.0
2015-Jan-21 11:33N 47°34' W 122°21'0 0.0
2015-Jan-21 10:33N 47°34' W 122°21'0 0.0
2015-Jan-21 10:28N 47°34' W 122°21'0 0.0
2015-Jan-21 09:33N 47°34' W 122°21'0 0.0
2015-Jan-21 09:33N 47°34' W 122°21'0 0.0
2015-Jan-21 08:33N 47°34' W 122°21'0 0.0
2015-Jan-21 08:32N 47°34' W 122°21'0 0.0
2015-Jan-21 07:33N 47°34' W 122°21'0 0.0
2015-Jan-21 07:32N 47°34' W 122°21'0 0.0
2015-Jan-21 07:02N 47°34' W 122°21'0 0.0
2015-Jan-21 06:33N 47°34' W 122°21'0 0.0
2015-Jan-21 05:33N 47°34' W 122°21'0 0.0
2015-Jan-21 05:32N 47°34' W 122°21'0 0.0
2015-Jan-21 04:33N 47°34' W 122°21'1 1.8
2015-Jan-21 03:44N 47°36' W 122°22'0 0.0
2015-Jan-21 03:33N 47°36' W 122°22'0 0.2
2015-Jan-21 03:18N 47°36' W 122°22'0 0.5
2015-Jan-21 02:33N 47°35' W 122°22'0 4.9
2015-Jan-21 02:28N 47°35' W 122°22'2 1.9
2015-Jan-21 01:33N 47°33' W 122°20'0 0.3
2015-Jan-21 01:32N 47°33' W 122°20'3 2.8
2015-Jan-21 00:33N 47°36' W 122°22'0 1.5
2015-Jan-21 00:32N 47°36' W 122°22'0 0.3
2015-Jan-20 23:33N 47°35' W 122°22'0 0.0
2015-Jan-20 23:32N 47°35' W 122°22'1 1.1
2015-Jan-20 22:33N 47°34' W 122°21'  

Dump ship's entire track history